Little Blue, Nebraska
Current Conditions -  °F | °C
As of 8:53 PM on Friday 19 Dec 2014 (Local Time) from KHSI Reporting Station
Moderate Fog Moderate Fog  
Wind Chill: 26°   Ceiling: 200
Heat Index: 33°   Visibility: 0.25mi
Dew Point: 32°   Wind: 8mph
Humidity: 96%   Direction: 180°S
Pressure: 30.04"   Gusts: NA
Location:  40.4809°N, 98.2217°W
Report Text: KHSI 200253Z AUTO 18007KT 1/4SM FG VV002 01/00 A3004 RMK AO2 SLP192 T00060000 58005
Loading
Personal Weather Stations






























Interactive Weather Map New forecast layout! Learn more

10-Day Weather Forecast

Advertisements
Track Severe Weather on mobile